Terminal Aerodrome Forecast
Issued by NWS

Home | Current Version | Previous Version | Graphics & Text | Print | Product List | Glossary On
Versions: 1 2 3 4 5 6 7 8 9 10 11 12 13 14 15 16 17 18 19 20 21 22 23 24 25
000
FTUS43 KLSX 171408 AAA
TAFCPS
TAF AMD
KCPS 171408Z 1714/1812 23007KT P6SM SCT050 BKN250
     FM171600 26008KT P6SM BKN020
     FM171800 26010G17KT P6SM SCT035
     FM180100 27004KT P6SM SKC=

USA.gov is the U.S. government's official web portal to all federal, state and local government web resources and services.